Conscripto Bernardi, Argentina
Current Conditions -  °F | °C
As of 12:00 PM on Friday 19 Dec 2014 (Local Time) from SUSO Reporting Station
Few Clouds Few Clouds  
Wind Chill: 84°   Ceiling: Unl
Heat Index: 85°   Visibility: 6mi
Dew Point: 63°   Wind: 14mph
Humidity: 48%   Direction: 20°NNE
Pressure: 29.74"   Gusts: NA
Location:  31.05°S, 59.09°W
Report Text: SUSO 191500Z 02012KT 9999 FEW017 29/17 Q1007
Loading
Personal Weather Stations






























Interactive Weather Map New forecast layout! Learn more

10-Day Weather Forecast

Advertisements
Track Severe Weather on mobile